sensor_id;sensor_type;location;lat;lon;timestamp;P1;durP1;ratioP1;P2;durP2;ratioP2
27003;SDS011;14546;47.590;19.022;2023-05-08T00:00:19;12.77;;;4.93;;
27003;SDS011;14546;47.590;19.022;2023-05-08T00:02:45;7.25;;;4.78;;
27003;SDS011;14546;47.590;19.022;2023-05-08T00:05:10;5.68;;;4.88;;
27003;SDS011;14546;47.590;19.022;2023-05-08T00:07:36;6.85;;;4.88;;
27003;SDS011;14546;47.590;19.022;2023-05-08T00:10:02;7.28;;;4.30;;
27003;SDS011;14546;47.590;19.022;2023-05-08T00:12:29;7.45;;;4.65;;
27003;SDS011;14546;47.590;19.022;2023-05-08T00:14:54;6.10;;;4.63;;
27003;SDS011;14546;47.590;19.022;2023-05-08T00:17:20;10.77;;;5.03;;
27003;SDS011;14546;47.590;19.022;2023-05-08T00:19:46;9.13;;;5.10;;
27003;SDS011;14546;47.590;19.022;2023-05-08T00:22:12;5.40;;;4.60;;
27003;SDS011;14546;47.590;19.022;2023-05-08T00:24:38;6.20;;;4.78;;
27003;SDS011;14546;47.590;19.022;2023-05-08T00:27:04;7.75;;;5.10;;
27003;SDS011;14546;47.590;19.022;2023-05-08T00:29:29;7.85;;;4.88;;
27003;SDS011;14546;47.590;19.022;2023-05-08T00:31:55;7.57;;;4.82;;
27003;SDS011;14546;47.590;19.022;2023-05-08T00:34:21;8.07;;;4.90;;
27003;SDS011;14546;47.590;19.022;2023-05-08T00:36:46;6.00;;;4.75;;
27003;SDS011;14546;47.590;19.022;2023-05-08T00:39:12;5.78;;;4.70;;
27003;SDS011;14546;47.590;19.022;2023-05-08T00:41:38;5.88;;;4.82;;
27003;SDS011;14546;47.590;19.022;2023-05-08T00:44:03;7.88;;;5.47;;
27003;SDS011;14546;47.590;19.022;2023-05-08T00:46:29;6.75;;;5.03;;
27003;SDS011;14546;47.590;19.022;2023-05-08T00:48:55;7.93;;;5.57;;
27003;SDS011;14546;47.590;19.022;2023-05-08T00:51:21;6.53;;;4.88;;
27003;SDS011;14546;47.590;19.022;2023-05-08T00:53:47;9.80;;;5.50;;
27003;SDS011;14546;47.590;19.022;2023-05-08T00:56:14;9.20;;;5.65;;
27003;SDS011;14546;47.590;19.022;2023-05-08T00:58:41;11.27;;;5.32;;
27003;SDS011;14546;47.590;19.022;2023-05-08T01:01:08;6.47;;;5.03;;
27003;SDS011;14546;47.590;19.022;2023-05-08T01:03:35;8.10;;;5.28;;
27003;SDS011;14546;47.590;19.022;2023-05-08T01:06:02;7.85;;;5.40;;
27003;SDS011;14546;47.590;19.022;2023-05-08T01:08:28;8.40;;;5.43;;
27003;SDS011;14546;47.590;19.022;2023-05-08T01:14:00;7.45;;;4.97;;
27003;SDS011;14546;47.590;19.022;2023-05-08T01:27:44;7.53;;;5.30;;
27003;SDS011;14546;47.590;19.022;2023-05-08T01:33:07;7.25;;;5.72;;
27003;SDS011;14546;47.590;19.022;2023-05-08T01:38:13;8.55;;;5.55;;
27003;SDS011;14546;47.590;19.022;2023-05-08T01:41:15;6.90;;;5.65;;
27003;SDS011;14546;47.590;19.022;2023-05-08T01:46:13;7.80;;;5.55;;
27003;SDS011;14546;47.590;19.022;2023-05-08T01:48:46;6.93;;;5.88;;
27003;SDS011;14546;47.590;19.022;2023-05-08T01:51:19;9.13;;;6.38;;
27003;SDS011;14546;47.590;19.022;2023-05-08T01:53:48;7.95;;;5.75;;
27003;SDS011;14546;47.590;19.022;2023-05-08T01:56:20;8.63;;;5.72;;
27003;SDS011;14546;47.590;19.022;2023-05-08T01:58:49;8.80;;;6.30;;
27003;SDS011;14546;47.590;19.022;2023-05-08T02:01:17;7.78;;;6.10;;
27003;SDS011;14546;47.590;19.022;2023-05-08T02:03:46;10.52;;;5.90;;
27003;SDS011;14546;47.590;19.022;2023-05-08T02:06:17;8.85;;;6.20;;
27003;SDS011;14546;47.590;19.022;2023-05-08T02:08:46;6.95;;;5.43;;
27003;SDS011;14546;47.590;19.022;2023-05-08T02:11:13;10.23;;;5.97;;
27003;SDS011;14546;47.590;19.022;2023-05-08T02:13:40;6.90;;;5.55;;
27003;SDS011;14546;47.590;19.022;2023-05-08T02:16:08;8.90;;;6.20;;
27003;SDS011;14546;47.590;19.022;2023-05-08T02:18:36;12.63;;;5.50;;
27003;SDS011;14546;47.590;19.022;2023-05-08T02:21:04;7.30;;;5.50;;
27003;SDS011;14546;47.590;19.022;2023-05-08T02:23:32;7.28;;;5.13;;
27003;SDS011;14546;47.590;19.022;2023-05-08T02:25:58;8.45;;;6.00;;
27003;SDS011;14546;47.590;19.022;2023-05-08T02:28:26;10.10;;;5.97;;
27003;SDS011;14546;47.590;19.022;2023-05-08T02:30:53;7.15;;;5.53;;
27003;SDS011;14546;47.590;19.022;2023-05-08T02:33:22;7.95;;;5.85;;
27003;SDS011;14546;47.590;19.022;2023-05-08T02:35:49;8.45;;;5.90;;
27003;SDS011;14546;47.590;19.022;2023-05-08T02:38:16;8.07;;;6.35;;
27003;SDS011;14546;47.590;19.022;2023-05-08T02:40:45;7.32;;;6.05;;
27003;SDS011;14546;47.590;19.022;2023-05-08T02:43:13;8.40;;;6.20;;
27003;SDS011;14546;47.590;19.022;2023-05-08T02:45:44;13.90;;;7.00;;
27003;SDS011;14546;47.590;19.022;2023-05-08T02:48:32;8.25;;;6.30;;
27003;SDS011;14546;47.590;19.022;2023-05-08T02:51:28;7.53;;;6.40;;
27003;SDS011;14546;47.590;19.022;2023-05-08T02:57:00;8.65;;;7.18;;
27003;SDS011;14546;47.590;19.022;2023-05-08T02:59:45;10.10;;;7.07;;
27003;SDS011;14546;47.590;19.022;2023-05-08T03:04:54;8.45;;;6.90;;
27003;SDS011;14546;47.590;19.022;2023-05-08T03:07:24;10.17;;;6.83;;
27003;SDS011;14546;47.590;19.022;2023-05-08T03:09:59;8.18;;;6.70;;
27003;SDS011;14546;47.590;19.022;2023-05-08T03:12:27;8.20;;;6.90;;
27003;SDS011;14546;47.590;19.022;2023-05-08T03:15:01;8.52;;;6.57;;
27003;SDS011;14546;47.590;19.022;2023-05-08T03:17:31;8.60;;;6.40;;
27003;SDS011;14546;47.590;19.022;2023-05-08T03:19:59;7.22;;;5.88;;
27003;SDS011;14546;47.590;19.022;2023-05-08T03:22:33;8.82;;;5.88;;
27003;SDS011;14546;47.590;19.022;2023-05-08T03:25:01;10.23;;;6.18;;
27003;SDS011;14546;47.590;19.022;2023-05-08T03:27:29;7.88;;;6.47;;
27003;SDS011;14546;47.590;19.022;2023-05-08T03:29:56;10.13;;;6.43;;
27003;SDS011;14546;47.590;19.022;2023-05-08T03:32:23;7.85;;;6.97;;
27003;SDS011;14546;47.590;19.022;2023-05-08T03:34:53;9.18;;;6.70;;
27003;SDS011;14546;47.590;19.022;2023-05-08T03:37:22;8.95;;;6.75;;
27003;SDS011;14546;47.590;19.022;2023-05-08T03:39:49;8.85;;;6.25;;
27003;SDS011;14546;47.590;19.022;2023-05-08T03:42:15;9.88;;;6.20;;
27003;SDS011;14546;47.590;19.022;2023-05-08T03:44:52;9.10;;;6.40;;
27003;SDS011;14546;47.590;19.022;2023-05-08T03:47:21;12.57;;;6.53;;
27003;SDS011;14546;47.590;19.022;2023-05-08T03:49:50;11.15;;;6.13;;
27003;SDS011;14546;47.590;19.022;2023-05-08T03:52:17;18.65;;;7.00;;
27003;SDS011;14546;47.590;19.022;2023-05-08T03:54:43;19.20;;;6.85;;
27003;SDS011;14546;47.590;19.022;2023-05-08T03:57:11;10.45;;;6.00;;
27003;SDS011;14546;47.590;19.022;2023-05-08T04:00:20;7.63;;;5.82;;
27003;SDS011;14546;47.590;19.022;2023-05-08T04:05:55;7.93;;;4.32;;
27003;SDS011;14546;47.590;19.022;2023-05-08T04:08:21;9.85;;;4.43;;
27003;SDS011;14546;47.590;19.022;2023-05-08T04:10:56;4.38;;;3.92;;
27003;SDS011;14546;47.590;19.022;2023-05-08T04:13:45;7.00;;;4.20;;
27003;SDS011;14546;47.590;19.022;2023-05-08T04:16:23;5.03;;;4.20;;
27003;SDS011;14546;47.590;19.022;2023-05-08T04:18:53;8.82;;;3.92;;
27003;SDS011;14546;47.590;19.022;2023-05-08T04:21:31;6.57;;;4.05;;
27003;SDS011;14546;47.590;19.022;2023-05-08T04:23:59;9.85;;;3.78;;
27003;SDS011;14546;47.590;19.022;2023-05-08T04:26:27;6.85;;;4.03;;
27003;SDS011;14546;47.590;19.022;2023-05-08T04:28:54;6.45;;;4.03;;
27003;SDS011;14546;47.590;19.022;2023-05-08T04:31:20;5.50;;;3.97;;
27003;SDS011;14546;47.590;19.022;2023-05-08T04:33:47;13.43;;;4.10;;
27003;SDS011;14546;47.590;19.022;2023-05-08T04:36:14;7.05;;;4.00;;
27003;SDS011;14546;47.590;19.022;2023-05-08T04:38:40;4.65;;;3.60;;
27003;SDS011;14546;47.590;19.022;2023-05-08T04:41:06;6.85;;;3.15;;
27003;SDS011;14546;47.590;19.022;2023-05-08T04:43:32;5.80;;;3.00;;
27003;SDS011;14546;47.590;19.022;2023-05-08T04:45:58;3.17;;;2.67;;
27003;SDS011;14546;47.590;19.022;2023-05-08T04:48:24;5.90;;;3.00;;
27003;SDS011;14546;47.590;19.022;2023-05-08T04:50:50;4.68;;;2.67;;
27003;SDS011;14546;47.590;19.022;2023-05-08T04:53:16;4.65;;;3.10;;
27003;SDS011;14546;47.590;19.022;2023-05-08T04:55:42;3.03;;;2.70;;
27003;SDS011;14546;47.590;19.022;2023-05-08T04:58:10;7.03;;;3.78;;
27003;SDS011;14546;47.590;19.022;2023-05-08T05:00:36;5.13;;;3.20;;
27003;SDS011;14546;47.590;19.022;2023-05-08T05:03:01;4.45;;;3.45;;
27003;SDS011;14546;47.590;19.022;2023-05-08T05:05:27;6.40;;;3.28;;
27003;SDS011;14546;47.590;19.022;2023-05-08T05:07:53;4.57;;;2.97;;
27003;SDS011;14546;47.590;19.022;2023-05-08T05:10:19;3.58;;;2.92;;
27003;SDS011;14546;47.590;19.022;2023-05-08T05:12:45;5.65;;;3.10;;
27003;SDS011;14546;47.590;19.022;2023-05-08T05:15:11;5.40;;;2.25;;
27003;SDS011;14546;47.590;19.022;2023-05-08T05:17:36;4.38;;;2.30;;
27003;SDS011;14546;47.590;19.022;2023-05-08T05:20:03;3.42;;;2.05;;
27003;SDS011;14546;47.590;19.022;2023-05-08T05:22:31;3.20;;;2.08;;
27003;SDS011;14546;47.590;19.022;2023-05-08T05:24:57;5.88;;;2.10;;
27003;SDS011;14546;47.590;19.022;2023-05-08T05:27:22;4.95;;;2.05;;
27003;SDS011;14546;47.590;19.022;2023-05-08T05:29:48;2.20;;;1.77;;
27003;SDS011;14546;47.590;19.022;2023-05-08T05:32:14;2.80;;;1.90;;
27003;SDS011;14546;47.590;19.022;2023-05-08T05:34:40;5.63;;;2.03;;
27003;SDS011;14546;47.590;19.022;2023-05-08T05:37:06;2.28;;;1.70;;
27003;SDS011;14546;47.590;19.022;2023-05-08T05:39:32;4.53;;;2.05;;
27003;SDS011;14546;47.590;19.022;2023-05-08T05:41:57;4.35;;;1.80;;
27003;SDS011;14546;47.590;19.022;2023-05-08T05:44:23;3.08;;;1.80;;
27003;SDS011;14546;47.590;19.022;2023-05-08T05:46:49;3.45;;;1.80;;
27003;SDS011;14546;47.590;19.022;2023-05-08T05:49:14;2.97;;;1.80;;
27003;SDS011;14546;47.590;19.022;2023-05-08T05:51:40;2.03;;;1.60;;
27003;SDS011;14546;47.590;19.022;2023-05-08T05:54:06;3.60;;;1.63;;
27003;SDS011;14546;47.590;19.022;2023-05-08T05:56:31;3.92;;;1.40;;
27003;SDS011;14546;47.590;19.022;2023-05-08T05:58:57;1.90;;;1.63;;
27003;SDS011;14546;47.590;19.022;2023-05-08T06:01:23;1.90;;;1.58;;
27003;SDS011;14546;47.590;19.022;2023-05-08T06:03:49;1.90;;;1.58;;
27003;SDS011;14546;47.590;19.022;2023-05-08T06:06:17;5.03;;;1.70;;
27003;SDS011;14546;47.590;19.022;2023-05-08T06:08:43;1.80;;;1.45;;
27003;SDS011;14546;47.590;19.022;2023-05-08T06:11:10;6.25;;;1.63;;
27003;SDS011;14546;47.590;19.022;2023-05-08T06:13:37;3.53;;;1.50;;
27003;SDS011;14546;47.590;19.022;2023-05-08T06:16:04;2.13;;;1.70;;
27003;SDS011;14546;47.590;19.022;2023-05-08T06:18:31;3.63;;;1.55;;
27003;SDS011;14546;47.590;19.022;2023-05-08T06:20:57;1.48;;;1.38;;
27003;SDS011;14546;47.590;19.022;2023-05-08T06:23:23;3.03;;;1.48;;
27003;SDS011;14546;47.590;19.022;2023-05-08T06:25:50;3.42;;;1.33;;
27003;SDS011;14546;47.590;19.022;2023-05-08T06:28:16;3.03;;;1.80;;
27003;SDS011;14546;47.590;19.022;2023-05-08T06:30:42;2.20;;;1.48;;
27003;SDS011;14546;47.590;19.022;2023-05-08T06:33:08;2.17;;;1.30;;
27003;SDS011;14546;47.590;19.022;2023-05-08T06:35:35;2.28;;;1.70;;
27003;SDS011;14546;47.590;19.022;2023-05-08T06:38:01;1.77;;;1.15;;
27003;SDS011;14546;47.590;19.022;2023-05-08T06:40:27;1.30;;;1.20;;
27003;SDS011;14546;47.590;19.022;2023-05-08T06:42:54;3.28;;;1.40;;
27003;SDS011;14546;47.590;19.022;2023-05-08T06:45:20;1.42;;;1.10;;
27003;SDS011;14546;47.590;19.022;2023-05-08T06:47:45;3.65;;;1.65;;
27003;SDS011;14546;47.590;19.022;2023-05-08T06:50:11;1.77;;;1.20;;
27003;SDS011;14546;47.590;19.022;2023-05-08T06:52:39;5.10;;;1.30;;
27003;SDS011;14546;47.590;19.022;2023-05-08T06:55:06;4.10;;;1.10;;
27003;SDS011;14546;47.590;19.022;2023-05-08T06:57:32;3.25;;;1.30;;
27003;SDS011;14546;47.590;19.022;2023-05-08T06:59:57;1.40;;;1.30;;
27003;SDS011;14546;47.590;19.022;2023-05-08T07:02:23;2.05;;;1.42;;
27003;SDS011;14546;47.590;19.022;2023-05-08T07:04:49;2.22;;;1.45;;
27003;SDS011;14546;47.590;19.022;2023-05-08T07:07:14;1.70;;;1.20;;
27003;SDS011;14546;47.590;19.022;2023-05-08T07:09:40;1.65;;;1.30;;
27003;SDS011;14546;47.590;19.022;2023-05-08T07:12:06;6.13;;;1.30;;
27003;SDS011;14546;47.590;19.022;2023-05-08T07:14:32;1.98;;;1.30;;
27003;SDS011;14546;47.590;19.022;2023-05-08T07:17:01;2.33;;;1.50;;
27003;SDS011;14546;47.590;19.022;2023-05-08T07:19:32;2.72;;;1.33;;
27003;SDS011;14546;47.590;19.022;2023-05-08T07:22:01;4.00;;;1.30;;
27003;SDS011;14546;47.590;19.022;2023-05-08T07:24:37;1.83;;;1.10;;
27003;SDS011;14546;47.590;19.022;2023-05-08T07:27:03;4.47;;;1.27;;
27003;SDS011;14546;47.590;19.022;2023-05-08T07:29:29;1.45;;;1.00;;
27003;SDS011;14546;47.590;19.022;2023-05-08T07:31:55;7.13;;;4.15;;
27003;SDS011;14546;47.590;19.022;2023-05-08T07:34:21;1.30;;;1.20;;
27003;SDS011;14546;47.590;19.022;2023-05-08T07:36:46;2.47;;;0.90;;
27003;SDS011;14546;47.590;19.022;2023-05-08T07:39:12;2.95;;;1.10;;
27003;SDS011;14546;47.590;19.022;2023-05-08T07:41:38;3.67;;;1.20;;
27003;SDS011;14546;47.590;19.022;2023-05-08T07:44:05;2.15;;;1.10;;
27003;SDS011;14546;47.590;19.022;2023-05-08T07:46:31;3.13;;;1.20;;
27003;SDS011;14546;47.590;19.022;2023-05-08T07:48:57;4.22;;;2.78;;
27003;SDS011;14546;47.590;19.022;2023-05-08T07:51:23;1.75;;;1.25;;
27003;SDS011;14546;47.590;19.022;2023-05-08T07:53:50;1.15;;;0.98;;
27003;SDS011;14546;47.590;19.022;2023-05-08T07:56:16;1.33;;;1.15;;
27003;SDS011;14546;47.590;19.022;2023-05-08T07:58:42;2.63;;;1.10;;
27003;SDS011;14546;47.590;19.022;2023-05-08T08:01:10;2.80;;;1.20;;
27003;SDS011;14546;47.590;19.022;2023-05-08T08:03:36;2.15;;;1.05;;
27003;SDS011;14546;47.590;19.022;2023-05-08T08:06:02;2.15;;;1.10;;
27003;SDS011;14546;47.590;19.022;2023-05-08T08:08:27;1.25;;;1.13;;
27003;SDS011;14546;47.590;19.022;2023-05-08T08:10:53;2.65;;;1.00;;
27003;SDS011;14546;47.590;19.022;2023-05-08T08:13:19;9.23;;;4.15;;
27003;SDS011;14546;47.590;19.022;2023-05-08T08:15:48;3.92;;;1.75;;
27003;SDS011;14546;47.590;19.022;2023-05-08T08:18:15;1.45;;;1.15;;
27003;SDS011;14546;47.590;19.022;2023-05-08T08:20:41;1.90;;;0.90;;
27003;SDS011;14546;47.590;19.022;2023-05-08T08:23:08;1.27;;;1.10;;
27003;SDS011;14546;47.590;19.022;2023-05-08T08:25:34;1.75;;;1.00;;
27003;SDS011;14546;47.590;19.022;2023-05-08T08:28:00;1.58;;;1.00;;
27003;SDS011;14546;47.590;19.022;2023-05-08T08:30:26;3.83;;;1.00;;
27003;SDS011;14546;47.590;19.022;2023-05-08T08:32:51;1.17;;;0.90;;
27003;SDS011;14546;47.590;19.022;2023-05-08T08:35:17;6.40;;;1.10;;
27003;SDS011;14546;47.590;19.022;2023-05-08T08:37:46;2.50;;;1.50;;
27003;SDS011;14546;47.590;19.022;2023-05-08T08:40:13;3.25;;;1.02;;
27003;SDS011;14546;47.590;19.022;2023-05-08T08:42:39;1.27;;;0.80;;
27003;SDS011;14546;47.590;19.022;2023-05-08T08:45:06;0.80;;;0.60;;
27003;SDS011;14546;47.590;19.022;2023-05-08T08:47:34;0.73;;;0.70;;
27003;SDS011;14546;47.590;19.022;2023-05-08T08:50:02;1.00;;;0.90;;
27003;SDS011;14546;47.590;19.022;2023-05-08T08:55:21;9.73;;;0.70;;
27003;SDS011;14546;47.590;19.022;2023-05-08T08:58:34;0.73;;;0.60;;
27003;SDS011;14546;47.590;19.022;2023-05-08T09:00:40;2.45;;;0.75;;
27003;SDS011;14546;47.590;19.022;2023-05-08T09:03:06;2.03;;;0.63;;
27003;SDS011;14546;47.590;19.022;2023-05-08T09:05:32;0.75;;;0.60;;
27003;SDS011;14546;47.590;19.022;2023-05-08T09:07:59;2.13;;;0.77;;
27003;SDS011;14546;47.590;19.022;2023-05-08T09:10:25;0.80;;;0.60;;
27003;SDS011;14546;47.590;19.022;2023-05-08T09:12:51;2.38;;;0.70;;
27003;SDS011;14546;47.590;19.022;2023-05-08T09:15:17;0.63;;;0.63;;
27003;SDS011;14546;47.590;19.022;2023-05-08T09:17:43;5.43;;;1.45;;
27003;SDS011;14546;47.590;19.022;2023-05-08T09:20:09;2.33;;;1.27;;
27003;SDS011;14546;47.590;19.022;2023-05-08T09:22:38;2.47;;;1.02;;
27003;SDS011;14546;47.590;19.022;2023-05-08T09:25:08;2.58;;;0.93;;
27003;SDS011;14546;47.590;19.022;2023-05-08T09:27:34;0.90;;;0.52;;
27003;SDS011;14546;47.590;19.022;2023-05-08T09:32:27;0.90;;;0.65;;
27003;SDS011;14546;47.590;19.022;2023-05-08T09:34:54;5.32;;;1.00;;
27003;SDS011;14546;47.590;19.022;2023-05-08T09:37:21;1.73;;;1.30;;
27003;SDS011;14546;47.590;19.022;2023-05-08T09:39:48;4.50;;;0.93;;
27003;SDS011;14546;47.590;19.022;2023-05-08T09:42:14;4.93;;;0.90;;
27003;SDS011;14546;47.590;19.022;2023-05-08T09:47:14;0.63;;;0.50;;
27003;SDS011;14546;47.590;19.022;2023-05-08T09:52:26;0.50;;;0.50;;
27003;SDS011;14546;47.590;19.022;2023-05-08T09:54:56;0.75;;;0.60;;
27003;SDS011;14546;47.590;19.022;2023-05-08T09:57:23;0.95;;;0.70;;
27003;SDS011;14546;47.590;19.022;2023-05-08T09:59:49;6.18;;;0.80;;
27003;SDS011;14546;47.590;19.022;2023-05-08T10:02:15;5.95;;;1.25;;
27003;SDS011;14546;47.590;19.022;2023-05-08T10:04:44;8.93;;;1.48;;
27003;SDS011;14546;47.590;19.022;2023-05-08T10:07:10;21.65;;;3.20;;
27003;SDS011;14546;47.590;19.022;2023-05-08T10:09:37;13.43;;;3.28;;
27003;SDS011;14546;47.590;19.022;2023-05-08T10:12:03;2.47;;;0.70;;
27003;SDS011;14546;47.590;19.022;2023-05-08T10:14:30;2.50;;;0.80;;
27003;SDS011;14546;47.590;19.022;2023-05-08T10:16:56;3.85;;;0.80;;
27003;SDS011;14546;47.590;19.022;2023-05-08T10:19:27;2.25;;;0.80;;
27003;SDS011;14546;47.590;19.022;2023-05-08T10:21:53;4.47;;;0.75;;
27003;SDS011;14546;47.590;19.022;2023-05-08T10:24:21;0.43;;;0.43;;
27003;SDS011;14546;47.590;19.022;2023-05-08T10:29:20;0.77;;;0.55;;
27003;SDS011;14546;47.590;19.022;2023-05-08T10:31:50;2.35;;;0.57;;
27003;SDS011;14546;47.590;19.022;2023-05-08T10:34:20;1.30;;;0.50;;
27003;SDS011;14546;47.590;19.022;2023-05-08T10:36:47;10.82;;;0.60;;
27003;SDS011;14546;47.590;19.022;2023-05-08T10:39:17;0.43;;;0.40;;
27003;SDS011;14546;47.590;19.022;2023-05-08T10:41:47;2.60;;;0.40;;
27003;SDS011;14546;47.590;19.022;2023-05-08T10:44:14;0.40;;;0.32;;
27003;SDS011;14546;47.590;19.022;2023-05-08T10:52:22;2.17;;;0.50;;
27003;SDS011;14546;47.590;19.022;2023-05-08T10:57:22;1.05;;;0.60;;
27003;SDS011;14546;47.590;19.022;2023-05-08T10:59:49;0.55;;;0.50;;
27003;SDS011;14546;47.590;19.022;2023-05-08T11:02:15;1.52;;;0.57;;
27003;SDS011;14546;47.590;19.022;2023-05-08T11:04:41;3.15;;;0.50;;
27003;SDS011;14546;47.590;19.022;2023-05-08T11:07:07;3.63;;;0.55;;
27003;SDS011;14546;47.590;19.022;2023-05-08T11:14:42;0.90;;;0.50;;
27003;SDS011;14546;47.590;19.022;2023-05-08T11:17:10;2.03;;;0.40;;
27003;SDS011;14546;47.590;19.022;2023-05-08T11:19:36;1.17;;;0.60;;
27003;SDS011;14546;47.590;19.022;2023-05-08T11:24:57;1.05;;;0.70;;
27003;SDS011;14546;47.590;19.022;2023-05-08T11:27:37;0.82;;;0.45;;
27003;SDS011;14546;47.590;19.022;2023-05-08T11:35:47;2.95;;;0.45;;
27003;SDS011;14546;47.590;19.022;2023-05-08T11:38:18;0.85;;;0.40;;
27003;SDS011;14546;47.590;19.022;2023-05-08T11:41:06;4.00;;;0.60;;
27003;SDS011;14546;47.590;19.022;2023-05-08T11:46:03;1.50;;;0.50;;
27003;SDS011;14546;47.590;19.022;2023-05-08T11:48:30;0.60;;;0.47;;
27003;SDS011;14546;47.590;19.022;2023-05-08T11:51:00;2.05;;;0.80;;
27003;SDS011;14546;47.590;19.022;2023-05-08T11:53:27;1.38;;;0.55;;
27003;SDS011;14546;47.590;19.022;2023-05-08T11:55:56;2.47;;;0.60;;
27003;SDS011;14546;47.590;19.022;2023-05-08T11:58:23;9.18;;;0.70;;
27003;SDS011;14546;47.590;19.022;2023-05-08T12:00:49;2.67;;;0.40;;
27003;SDS011;14546;47.590;19.022;2023-05-08T12:03:16;0.38;;;0.38;;
27003;SDS011;14546;47.590;19.022;2023-05-08T12:05:43;0.40;;;0.40;;
27003;SDS011;14546;47.590;19.022;2023-05-08T12:08:10;1.77;;;0.50;;
27003;SDS011;14546;47.590;19.022;2023-05-08T12:13:15;2.15;;;0.47;;
27003;SDS011;14546;47.590;19.022;2023-05-08T12:15:42;1.35;;;0.50;;
27003;SDS011;14546;47.590;19.022;2023-05-08T12:18:08;4.13;;;0.57;;
27003;SDS011;14546;47.590;19.022;2023-05-08T12:20:34;1.75;;;0.35;;
27003;SDS011;14546;47.590;19.022;2023-05-08T12:23:01;2.85;;;0.60;;
27003;SDS011;14546;47.590;19.022;2023-05-08T12:25:37;0.43;;;0.43;;
27003;SDS011;14546;47.590;19.022;2023-05-08T12:28:05;0.52;;;0.52;;
27003;SDS011;14546;47.590;19.022;2023-05-08T12:30:31;4.25;;;0.50;;
27003;SDS011;14546;47.590;19.022;2023-05-08T12:32:57;0.75;;;0.40;;
27003;SDS011;14546;47.590;19.022;2023-05-08T12:35:24;1.15;;;0.50;;
27003;SDS011;14546;47.590;19.022;2023-05-08T12:37:51;4.68;;;0.60;;
27003;SDS011;14546;47.590;19.022;2023-05-08T12:40:24;1.77;;;0.70;;
27003;SDS011;14546;47.590;19.022;2023-05-08T12:42:50;2.38;;;0.60;;
27003;SDS011;14546;47.590;19.022;2023-05-08T12:45:17;0.75;;;0.50;;
27003;SDS011;14546;47.590;19.022;2023-05-08T12:47:47;6.13;;;0.65;;
27003;SDS011;14546;47.590;19.022;2023-05-08T12:50:14;0.88;;;0.50;;
27003;SDS011;14546;47.590;19.022;2023-05-08T12:52:40;3.60;;;0.80;;
27003;SDS011;14546;47.590;19.022;2023-05-08T12:55:25;2.50;;;0.50;;
27003;SDS011;14546;47.590;19.022;2023-05-08T12:58:01;3.40;;;0.70;;
27003;SDS011;14546;47.590;19.022;2023-05-08T13:00:46;1.25;;;0.55;;
27003;SDS011;14546;47.590;19.022;2023-05-08T13:03:51;0.68;;;0.40;;
27003;SDS011;14546;47.590;19.022;2023-05-08T13:06:06;0.90;;;0.68;;
27003;SDS011;14546;47.590;19.022;2023-05-08T13:08:44;2.17;;;0.63;;
27003;SDS011;14546;47.590;19.022;2023-05-08T13:11:10;1.05;;;0.50;;
27003;SDS011;14546;47.590;19.022;2023-05-08T13:13:36;0.55;;;0.52;;
27003;SDS011;14546;47.590;19.022;2023-05-08T13:16:03;8.13;;;0.60;;
27003;SDS011;14546;47.590;19.022;2023-05-08T13:18:30;3.97;;;0.82;;
27003;SDS011;14546;47.590;19.022;2023-05-08T13:20:57;1.27;;;0.90;;
27003;SDS011;14546;47.590;19.022;2023-05-08T13:23:26;0.50;;;0.40;;
27003;SDS011;14546;47.590;19.022;2023-05-08T13:25:52;3.85;;;0.50;;
27003;SDS011;14546;47.590;19.022;2023-05-08T13:28:18;1.25;;;0.70;;
27003;SDS011;14546;47.590;19.022;2023-05-08T13:30:44;4.03;;;0.88;;
27003;SDS011;14546;47.590;19.022;2023-05-08T13:33:10;2.25;;;0.80;;
27003;SDS011;14546;47.590;19.022;2023-05-08T13:35:37;1.63;;;0.75;;
27003;SDS011;14546;47.590;19.022;2023-05-08T13:38:03;3.13;;;0.60;;
27003;SDS011;14546;47.590;19.022;2023-05-08T13:40:30;2.00;;;0.57;;
27003;SDS011;14546;47.590;19.022;2023-05-08T13:42:56;2.08;;;0.77;;
27003;SDS011;14546;47.590;19.022;2023-05-08T13:45:22;3.15;;;0.80;;
27003;SDS011;14546;47.590;19.022;2023-05-08T13:47:48;2.15;;;0.70;;
27003;SDS011;14546;47.590;19.022;2023-05-08T13:50:15;1.75;;;0.50;;
27003;SDS011;14546;47.590;19.022;2023-05-08T13:52:43;1.60;;;0.60;;
27003;SDS011;14546;47.590;19.022;2023-05-08T13:55:10;3.60;;;0.68;;
27003;SDS011;14546;47.590;19.022;2023-05-08T13:57:37;3.25;;;1.25;;
27003;SDS011;14546;47.590;19.022;2023-05-08T14:00:05;1.92;;;0.88;;
27003;SDS011;14546;47.590;19.022;2023-05-08T14:02:32;23.27;;;2.47;;
27003;SDS011;14546;47.590;19.022;2023-05-08T14:04:58;14.05;;;2.40;;
27003;SDS011;14546;47.590;19.022;2023-05-08T14:07:25;24.95;;;3.72;;
27003;SDS011;14546;47.590;19.022;2023-05-08T14:09:52;27.02;;;3.75;;
27003;SDS011;14546;47.590;19.022;2023-05-08T14:12:18;5.25;;;1.25;;
27003;SDS011;14546;47.590;19.022;2023-05-08T14:14:44;2.40;;;0.85;;
27003;SDS011;14546;47.590;19.022;2023-05-08T14:17:10;3.67;;;0.98;;
27003;SDS011;14546;47.590;19.022;2023-05-08T14:19:37;2.00;;;0.70;;
27003;SDS011;14546;47.590;19.022;2023-05-08T14:22:03;2.40;;;0.70;;
27003;SDS011;14546;47.590;19.022;2023-05-08T14:24:29;3.53;;;0.85;;
27003;SDS011;14546;47.590;19.022;2023-05-08T14:26:55;4.95;;;0.73;;
27003;SDS011;14546;47.590;19.022;2023-05-08T14:29:23;0.60;;;0.55;;
27003;SDS011;14546;47.590;19.022;2023-05-08T14:31:49;3.45;;;0.85;;
27003;SDS011;14546;47.590;19.022;2023-05-08T14:34:16;1.63;;;0.70;;
27003;SDS011;14546;47.590;19.022;2023-05-08T14:36:42;1.02;;;0.82;;
27003;SDS011;14546;47.590;19.022;2023-05-08T14:39:08;1.10;;;0.80;;
27003;SDS011;14546;47.590;19.022;2023-05-08T14:41:34;3.90;;;0.70;;
27003;SDS011;14546;47.590;19.022;2023-05-08T14:44:02;1.10;;;0.77;;
27003;SDS011;14546;47.590;19.022;2023-05-08T14:46:28;2.03;;;0.90;;
27003;SDS011;14546;47.590;19.022;2023-05-08T14:48:54;4.80;;;1.10;;
27003;SDS011;14546;47.590;19.022;2023-05-08T14:51:20;1.95;;;0.80;;
27003;SDS011;14546;47.590;19.022;2023-05-08T14:53:46;3.95;;;0.70;;
27003;SDS011;14546;47.590;19.022;2023-05-08T14:56:12;1.75;;;0.90;;
27003;SDS011;14546;47.590;19.022;2023-05-08T14:58:38;4.82;;;0.90;;
27003;SDS011;14546;47.590;19.022;2023-05-08T15:01:04;1.83;;;0.80;;
27003;SDS011;14546;47.590;19.022;2023-05-08T15:03:30;2.03;;;1.10;;
27003;SDS011;14546;47.590;19.022;2023-05-08T15:05:57;1.67;;;0.98;;
27003;SDS011;14546;47.590;19.022;2023-05-08T15:08:23;1.98;;;0.90;;
27003;SDS011;14546;47.590;19.022;2023-05-08T15:10:49;1.75;;;0.60;;
27003;SDS011;14546;47.590;19.022;2023-05-08T15:13:16;0.82;;;0.60;;
27003;SDS011;14546;47.590;19.022;2023-05-08T15:15:42;3.95;;;0.80;;
27003;SDS011;14546;47.590;19.022;2023-05-08T15:18:08;2.65;;;1.00;;
27003;SDS011;14546;47.590;19.022;2023-05-08T15:20:34;3.05;;;0.80;;
27003;SDS011;14546;47.590;19.022;2023-05-08T15:23:00;1.95;;;0.82;;
27003;SDS011;14546;47.590;19.022;2023-05-08T15:25:26;2.10;;;0.80;;
27003;SDS011;14546;47.590;19.022;2023-05-08T15:27:52;4.68;;;0.73;;
27003;SDS011;14546;47.590;19.022;2023-05-08T15:30:19;1.92;;;1.05;;
27003;SDS011;14546;47.590;19.022;2023-05-08T15:32:45;3.72;;;0.82;;
27003;SDS011;14546;47.590;19.022;2023-05-08T15:35:11;6.22;;;1.15;;
27003;SDS011;14546;47.590;19.022;2023-05-08T15:37:37;1.73;;;0.70;;
27003;SDS011;14546;47.590;19.022;2023-05-08T15:40:04;2.10;;;0.80;;
27003;SDS011;14546;47.590;19.022;2023-05-08T15:42:30;2.63;;;0.98;;
27003;SDS011;14546;47.590;19.022;2023-05-08T15:44:56;1.00;;;0.70;;
27003;SDS011;14546;47.590;19.022;2023-05-08T15:47:22;1.15;;;0.65;;